Time;durP1;ratioP1;P1;durP2;ratioP2;P2;SDS_P1;SDS_P2;PMS_P1;PMS_P2;Temp;Humidity;BMP_temperature;BMP_pressure;BME280_temperature;BME280_humidity;BME280_pressure;Samples;Min_cycle;Max_cycle;Signal;HPM_P1;HPM_P2
2022/08/30 00:01:01;;;;;;;;;;;;;;;27.58;34.96;100598.28;5076345;28;1036;-46
2022/08/30 00:03:26;;;;;;;;;;;;;;;27.74;34.81;100604.50;5074442;28;1906;-47
2022/08/30 00:05:52;;;;;;;;;;;;;;;27.84;34.81;100601.50;5074484;28;913;-50
2022/08/30 00:08:17;;;;;;;;;;;;;;;27.97;34.70;100604.34;5076953;28;1221;-49
2022/08/30 00:10:43;;;;;;;;;;;;;;;28.08;34.46;100599.44;5077990;28;1091;-48
2022/08/30 00:13:11;;;;;;;;;;;;;;;27.99;34.93;100596.84;5070947;28;1016;-49
2022/08/30 00:15:36;;;;;;;;;;;;;;;28.05;34.76;100594.41;5068679;28;965;-49
2022/08/30 00:18:01;;;;;;;;;;;;;;;28.05;34.84;100595.25;5068284;28;846;-45
2022/08/30 00:20:27;;;;;;;;;;;;;;;28.12;34.65;100595.31;5069744;28;1111;-48
2022/08/30 00:22:53;;;;;;;;;;;;;;;27.85;35.12;100600.47;5074988;28;1906;-47
2022/08/30 00:25:18;;;;;;;;;;;;;;;27.91;34.94;100601.56;5071940;28;1211;-47
2022/08/30 00:27:44;;;;;;;;;;;;;;;27.89;34.92;100601.75;5075866;28;1135;-50
2022/08/30 00:30:09;;;;;;;;;;;;;;;27.79;34.03;100599.38;5065779;28;1097;-44
2022/08/30 00:32:35;;;;;;;;;;;;;;;27.75;34.24;100593.50;5076810;28;1032;-47
2022/08/30 00:35:00;;;;;;;;;;;;;;;27.70;34.10;100600.50;5077474;28;1064;-49
2022/08/30 00:37:25;;;;;;;;;;;;;;;27.72;34.24;100587.66;5072880;28;1199;-47
2022/08/30 00:39:51;;;;;;;;;;;;;;;27.69;34.14;100586.19;5070040;28;1063;-48
2022/08/30 00:42:16;;;;;;;;;;;;;;;27.77;34.30;100595.16;5067328;28;1902;-47
2022/08/30 00:44:42;;;;;;;;;;;;;;;27.82;34.10;100592.75;5075323;28;1076;-47
2022/08/30 00:47:07;;;;;;;;;;;;;;;27.91;34.35;100588.06;5077811;28;1029;-45
2022/08/30 00:49:33;;;;;;;;;;;;;;;27.88;34.36;100589.25;5068166;28;918;-44
2022/08/30 00:51:58;;;;;;;;;;;;;;;27.97;34.41;100590.81;5059621;28;1001;-47
2022/08/30 00:54:24;;;;;;;;;;;;;;;28.02;34.45;100595.66;5049938;28;1056;-47
2022/08/30 00:56:49;;;;;;;;;;;;;;;28.04;34.23;100592.75;5058911;28;1010;-46
2022/08/30 00:59:14;;;;;;;;;;;;;;;27.41;34.79;100515.78;5055794;28;1013;-46
2022/08/30 01:01:41;;;;;;;;;;;;;;;27.84;34.48;100598.78;5052624;28;1147;-45
2022/08/30 01:04:07;;;;;;;;;;;;;;;27.75;34.49;100598.91;5073933;28;1910;-48
2022/08/30 01:06:32;;;;;;;;;;;;;;;27.72;34.29;100602.00;5070664;28;1203;-47
2022/08/30 01:08:58;;;;;;;;;;;;;;;27.70;34.27;100598.66;5075989;28;1060;-43
2022/08/30 01:11:24;;;;;;;;;;;;;;;27.71;34.14;100594.09;5076029;28;1283;-48
2022/08/30 01:13:49;;;;;;;;;;;;;;;27.62;34.12;100599.56;5077367;28;1147;-44
2022/08/30 01:16:14;;;;;;;;;;;;;;;27.77;34.23;100598.72;5051772;28;1539;-48
2022/08/30 01:18:39;;;;;;;;;;;;;;;27.94;34.21;100595.78;5066349;28;1091;-45
2022/08/30 01:21:06;;;;;;;;;;;;;;;28.02;34.12;100600.22;5071799;28;1469;-45
2022/08/30 01:23:31;;;;;;;;;;;;;;;27.97;34.27;100607.03;5069620;28;1918;-51
2022/08/30 01:25:56;;;;;;;;;;;;;;;28.13;33.98;100601.56;5072917;28;985;-50
2022/08/30 01:28:23;;;;;;;;;;;;;;;28.14;34.32;100603.25;5041216;28;1018;-46
2022/08/30 01:30:48;;;;;;;;;;;;;;;28.06;34.14;100598.81;5073099;28;1008;-51
2022/08/30 01:33:14;;;;;;;;;;;;;;;28.09;34.59;100601.94;5075068;28;994;-45
2022/08/30 01:35:58;;;;;;;;;;;;;;;28.21;34.28;100599.56;5075184;28;1131;-48
2022/08/30 01:38:25;;;;;;;;;;;;;;;28.21;34.59;100601.44;5076336;28;969;-49
2022/08/30 01:40:55;;;;;;;;;;;;;;;28.17;34.51;100603.69;5053808;28;1108;-47
2022/08/30 01:43:20;;;;;;;;;;;;;;;28.24;34.29;100606.47;5052614;28;1959;-47
2022/08/30 01:45:45;;;;;;;;;;;;;;;27.93;34.77;100604.91;5075521;28;1079;-48
2022/08/30 01:48:13;;;;;;;;;;;;;;;27.97;34.66;100598.94;5075582;28;1230;-50
2022/08/30 01:50:39;;;;;;;;;;;;;;;27.82;34.74;100604.41;5077133;28;1053;-45
2022/08/30 01:53:05;;;;;;;;;;;;;;;27.88;34.62;100597.38;5065199;28;941;-48
2022/08/30 01:55:31;;;;;;;;;;;;;;;27.81;34.43;100605.41;5069468;28;1138;-45
2022/08/30 01:57:56;;;;;;;;;;;;;;;27.71;34.54;100603.00;5069878;28;985;-44
2022/08/30 02:00:21;;;;;;;;;;;;;;;27.77;34.30;100597.88;5070192;28;973;-46
2022/08/30 02:02:47;;;;;;;;;;;;;;;27.94;34.44;100599.31;5072345;28;1902;-45
2022/08/30 02:05:12;;;;;;;;;;;;;;;27.95;34.40;100595.56;5070609;28;857;-50
2022/08/30 02:07:38;;;;;;;;;;;;;;;28.11;34.21;100602.59;5074298;28;1460;-47
2022/08/30 02:10:03;;;;;;;;;;;;;;;27.98;34.27;100600.59;5071727;28;1221;-45
2022/08/30 02:12:29;;;;;;;;;;;;;;;28.01;34.48;100601.25;5075337;28;1000;-48
2022/08/30 02:14:54;;;;;;;;;;;;;;;28.11;34.61;100596.38;5075953;28;1215;-46
2022/08/30 02:17:20;;;;;;;;;;;;;;;28.22;34.59;100603.94;5069471;28;946;-47
2022/08/30 02:19:45;;;;;;;;;;;;;;;28.22;34.48;100603.09;5070559;28;961;-45
2022/08/30 02:22:10;;;;;;;;;;;;;;;28.09;34.50;100598.41;5065844;28;1234;-44
2022/08/30 02:24:36;;;;;;;;;;;;;;;28.17;34.73;100598.28;5071421;28;1918;-47
2022/08/30 02:27:01;;;;;;;;;;;;;;;28.18;34.86;100599.09;5068507;28;1451;-48
2022/08/30 02:29:26;;;;;;;;;;;;;;;28.13;34.99;100597.00;5072348;28;1049;-46
2022/08/30 02:31:52;;;;;;;;;;;;;;;27.99;34.73;100596.84;5071627;28;1071;-43
2022/08/30 02:34:17;;;;;;;;;;;;;;;27.93;34.82;100602.19;5073596;28;985;-47
2022/08/30 02:36:43;;;;;;;;;;;;;;;27.85;34.78;100604.00;5075254;28;989;-46
2022/08/30 02:39:08;;;;;;;;;;;;;;;27.82;34.71;100606.25;5074895;28;1111;-47
2022/08/30 02:41:33;;;;;;;;;;;;;;;27.75;34.57;100607.03;5073343;28;1052;-47
2022/08/30 02:43:59;;;;;;;;;;;;;;;27.74;34.47;100607.22;5069603;28;1898;-49
2022/08/30 02:46:25;;;;;;;;;;;;;;;27.87;34.35;100607.38;5072582;28;1175;-47
2022/08/30 02:48:50;;;;;;;;;;;;;;;28.07;34.19;100606.72;5075197;28;1000;-46
2022/08/30 02:51:16;;;;;;;;;;;;;;;28.04;34.24;100606.28;5075353;28;1155;-47
2022/08/30 02:53:42;;;;;;;;;;;;;;;28.12;34.38;100616.97;5069159;28;1005;-46
2022/08/30 02:56:07;;;;;;;;;;;;;;;28.06;34.59;100615.03;5068519;28;938;-47
2022/08/30 02:58:33;;;;;;;;;;;;;;;28.09;34.59;100610.03;5066614;28;1021;-47
2022/08/30 03:00:58;;;;;;;;;;;;;;;28.10;34.59;100610.91;5071141;28;1052;-46
2022/08/30 03:03:23;;;;;;;;;;;;;;;28.10;35.09;100616.31;5067909;28;1893;-48
2022/08/30 03:05:49;;;;;;;;;;;;;;;28.17;34.91;100622.63;5066146;28;992;-46
2022/08/30 03:08:14;;;;;;;;;;;;;;;28.00;35.20;100616.63;5070567;28;1127;-44
2022/08/30 03:10:39;;;;;;;;;;;;;;;27.87;35.15;100617.31;5073807;28;1283;-45
2022/08/30 03:13:06;;;;;;;;;;;;;;;28.00;34.28;100630.16;5073425;28;1221;-48
2022/08/30 03:15:32;;;;;;;;;;;;;;;27.98;35.14;100615.97;5075034;28;1180;-45
2022/08/30 03:17:57;;;;;;;;;;;;;;;27.83;34.52;100629.53;5073682;28;1033;-45
2022/08/30 03:20:22;;;;;;;;;;;;;;;27.99;34.07;100628.47;5064778;28;953;-46
2022/08/30 03:22:48;;;;;;;;;;;;;;;28.01;34.34;100628.28;5072800;28;1977;-44
2022/08/30 03:25:13;;;;;;;;;;;;;;;28.16;33.45;100628.22;5069674;28;1291;-45
2022/08/30 03:27:39;;;;;;;;;;;;;;;28.20;34.17;100622.22;5073423;28;981;-45
2022/08/30 03:30:04;;;;;;;;;;;;;;;28.33;34.13;100628.81;5069333;28;969;-44
2022/08/30 03:32:29;;;;;;;;;;;;;;;27.67;35.08;100636.84;5062039;28;1489;-43
2022/08/30 03:34:55;;;;;;;;;;;;;;;26.92;35.71;100628.72;5077048;28;1032;-41
2022/08/30 03:37:20;;;;;;;;;;;;;;;26.65;35.86;100634.56;5075519;28;1203;-42
2022/08/30 03:39:45;;;;;;;;;;;;;;;26.47;36.15;100632.19;5078750;28;973;-43
2022/08/30 03:42:11;;;;;;;;;;;;;;;26.40;36.06;100638.31;5072390;28;1158;-41
2022/08/30 03:44:36;;;;;;;;;;;;;;;26.07;36.81;100635.81;5073604;28;1963;-41
2022/08/30 03:47:02;;;;;;;;;;;;;;;26.02;36.54;100639.06;5077653;28;1118;-40
2022/08/30 03:49:27;;;;;;;;;;;;;;;26.16;36.54;100647.38;5057813;28;1123;-40
2022/08/30 03:51:53;;;;;;;;;;;;;;;26.14;36.64;100652.94;5078318;28;1048;-43
2022/08/30 03:54:18;;;;;;;;;;;;;;;26.21;36.31;100650.38;5076110;28;1065;-41
2022/08/30 03:56:43;;;;;;;;;;;;;;;26.35;36.34;100654.19;5056662;28;1478;-43
2022/08/30 03:59:09;;;;;;;;;;;;;;;26.48;36.20;100658.13;5060120;28;963;-51
2022/08/30 04:01:34;;;;;;;;;;;;;;;26.43;36.50;100664.06;5062800;28;973;-47
2022/08/30 04:03:59;;;;;;;;;;;;;;;26.37;36.79;100659.41;5062285;28;1906;-48
2022/08/30 04:06:24;;;;;;;;;;;;;;;26.40;36.63;100659.88;5064003;28;1207;-46
2022/08/30 04:08:50;;;;;;;;;;;;;;;26.44;36.68;100667.63;5061653;28;1243;-47
2022/08/30 04:11:15;;;;;;;;;;;;;;;26.49;36.76;100670.59;5060561;28;1147;-44
2022/08/30 04:13:41;;;;;;;;;;;;;;;26.44;37.30;100673.84;5062892;28;1326;-45
2022/08/30 04:16:06;;;;;;;;;;;;;;;26.52;37.45;100671.09;5062356;28;1247;-46
2022/08/30 04:18:31;;;;;;;;;;;;;;;26.56;37.37;100673.44;5064603;28;1270;-47
2022/08/30 04:20:57;;;;;;;;;;;;;;;26.57;37.59;100670.53;5064106;28;1321;-45
2022/08/30 04:23:22;;;;;;;;;;;;;;;26.61;37.62;100677.25;5060811;28;1914;-44
2022/08/30 04:25:47;;;;;;;;;;;;;;;26.58;38.21;100674.06;5062675;28;1196;-46
2022/08/30 04:28:13;;;;;;;;;;;;;;;26.52;38.47;100676.50;5062246;28;1211;-44
2022/08/30 04:30:39;;;;;;;;;;;;;;;26.51;38.73;100676.63;5061638;28;1259;-46
2022/08/30 04:33:04;;;;;;;;;;;;;;;26.62;38.99;100684.34;5062725;28;2394;-47
2022/08/30 04:35:29;;;;;;;;;;;;;;;26.75;38.65;100685.56;5073925;28;2205;-48
2022/08/30 04:37:55;;;;;;;;;;;;;;;26.95;38.37;100685.88;5072639;28;2044;-45
2022/08/30 04:40:20;;;;;;;;;;;;;;;27.18;37.12;100679.63;5068357;28;2083;-44
2022/08/30 04:42:46;;;;;;;;;;;;;;;27.29;36.80;100680.19;5064781;28;1965;-42
2022/08/30 04:45:13;;;;;;;;;;;;;;;27.30;36.29;100680.00;5061441;28;1862;-43
2022/08/30 04:47:38;;;;;;;;;;;;;;;27.42;36.34;100677.66;5070425;28;2120;-46
2022/08/30 04:50:05;;;;;;;;;;;;;;;27.53;36.11;100686.34;5076502;28;1103;-45
2022/08/30 04:52:30;;;;;;;;;;;;;;;27.54;35.95;100680.75;5076448;28;1137;-43
2022/08/30 04:54:56;;;;;;;;;;;;;;;27.57;36.10;100685.78;5067998;28;1189;-44
2022/08/30 04:57:21;;;;;;;;;;;;;;;27.56;36.10;100691.34;5065867;28;966;-43
2022/08/30 04:59:46;;;;;;;;;;;;;;;27.56;36.27;100691.34;5063244;28;1302;-45
2022/08/30 05:02:12;;;;;;;;;;;;;;;27.60;36.44;100703.47;5062737;28;1200;-46
2022/08/30 05:05:38;;;;;;;;;;;;;;;27.54;36.61;100696.09;5059566;28;1902;-42
2022/08/30 05:07:22;;;;;;;;;;;;;;;27.58;36.18;100695.53;5059592;28;1367;-45
2022/08/30 05:09:47;;;;;;;;;;;;;;;27.66;36.35;100699.19;5059709;28;1069;-44
2022/08/30 05:12:13;;;;;;;;;;;;;;;27.69;36.53;100693.44;5061431;28;1231;-43
2022/08/30 05:14:38;;;;;;;;;;;;;;;27.76;36.56;100699.72;5060945;28;1100;-45
2022/08/30 05:17:04;;;;;;;;;;;;;;;27.79;36.29;100709.34;5060751;28;1061;-43
2022/08/30 05:19:30;;;;;;;;;;;;;;;27.79;36.46;100706.66;5062484;28;2381;-44
2022/08/30 05:21:55;;;;;;;;;;;;;;;27.91;36.59;100704.28;5061925;28;1076;-43
2022/08/30 05:24:21;;;;;;;;;;;;;;;27.94;36.20;100701.22;5059581;28;1914;-44
2022/08/30 05:26:46;;;;;;;;;;;;;;;27.97;35.83;100700.81;5061655;28;1286;-45
2022/08/30 05:29:11;;;;;;;;;;;;;;;28.03;36.37;100705.47;5060764;28;1203;-47
2022/08/30 05:31:36;;;;;;;;;;;;;;;28.14;35.99;100709.56;5063125;28;1243;-43
2022/08/30 05:34:02;;;;;;;;;;;;;;;28.16;36.28;100709.38;5060198;28;1275;-47
2022/08/30 05:36:28;;;;;;;;;;;;;;;28.12;35.83;100708.91;5059921;28;1224;-43
2022/08/30 05:38:53;;;;;;;;;;;;;;;28.10;35.88;100708.25;5061922;28;1298;-44
2022/08/30 05:41:19;;;;;;;;;;;;;;;28.23;35.59;100715.66;5061505;28;1235;-42
2022/08/30 05:43:44;;;;;;;;;;;;;;;28.26;35.88;100712.56;5060364;28;1900;-43
2022/08/30 05:46:10;;;;;;;;;;;;;;;28.26;36.00;100720.69;5061103;28;1215;-46
2022/08/30 05:48:36;;;;;;;;;;;;;;;28.21;35.82;100718.56;5060237;28;2297;-47
2022/08/30 05:51:11;;;;;;;;;;;;;;;28.29;35.86;100719.47;5061724;28;1160;-43
2022/08/30 05:53:36;;;;;;;;;;;;;;;28.36;36.01;100713.13;5056766;28;1172;-44
2022/08/30 05:56:02;;;;;;;;;;;;;;;28.33;35.77;100712.69;5058533;28;1271;-44
2022/08/30 05:58:28;;;;;;;;;;;;;;;28.26;35.95;100717.16;5061352;28;1243;-49
2022/08/30 06:00:53;;;;;;;;;;;;;;;28.28;35.99;100715.13;5056938;28;1207;-46
2022/08/30 06:03:18;;;;;;;;;;;;;;;28.23;36.36;100711.09;5055464;28;1894;-48
2022/08/30 06:05:44;;;;;;;;;;;;;;;28.33;35.73;100715.38;5068989;28;1001;-46
2022/08/30 06:08:09;;;;;;;;;;;;;;;28.08;36.46;100710.28;5069319;28;912;-41
2022/08/30 06:10:34;;;;;;;;;;;;;;;27.95;36.66;100708.28;5065247;28;1277;-49
2022/08/30 06:12:59;;;;;;;;;;;;;;;28.06;36.54;100707.78;5067404;28;1250;-45
2022/08/30 06:15:25;;;;;;;;;;;;;;;28.32;36.42;100701.00;5072554;28;1174;-45
2022/08/30 06:17:50;;;;;;;;;;;;;;;28.34;36.38;100709.78;5055378;28;2334;-46
2022/08/30 06:20:17;;;;;;;;;;;;;;;28.44;36.17;100714.91;5051492;28;1008;-48
2022/08/30 06:22:43;;;;;;;;;;;;;;;28.47;35.89;100717.22;5051054;28;1976;-46
2022/08/30 06:25:08;;;;;;;;;;;;;;;28.44;35.85;100717.59;5051145;28;942;-51
2022/08/30 06:27:34;;;;;;;;;;;;;;;28.44;35.98;100714.06;5050093;28;1060;-48
2022/08/30 06:29:59;;;;;;;;;;;;;;;28.56;35.99;100714.38;5049983;28;929;-46
2022/08/30 06:32:24;;;;;;;;;;;;;;;28.54;35.71;100711.88;5052318;28;1215;-46
2022/08/30 06:34:49;;;;;;;;;;;;;;;28.60;35.55;100718.34;5050304;28;1077;-49
2022/08/30 06:37:15;;;;;;;;;;;;;;;28.63;35.99;100714.44;5049286;28;1063;-49
2022/08/30 06:39:40;;;;;;;;;;;;;;;28.62;35.90;100721.72;5051108;28;891;-45
2022/08/30 06:42:05;;;;;;;;;;;;;;;28.65;36.29;100717.75;5048666;28;973;-45
2022/08/30 06:44:31;;;;;;;;;;;;;;;28.72;36.42;100718.69;5054174;28;1909;-45
2022/08/30 06:46:57;;;;;;;;;;;;;;;28.72;36.04;100718.69;5052102;28;961;-45
2022/08/30 06:49:22;;;;;;;;;;;;;;;28.65;36.19;100715.91;5054120;28;2528;-45
2022/08/30 06:51:47;;;;;;;;;;;;;;;28.68;36.45;100712.81;5052694;28;932;-44
2022/08/30 06:54:12;;;;;;;;;;;;;;;28.71;35.92;100717.00;5054914;28;1171;-44
2022/08/30 06:56:38;;;;;;;;;;;;;;;28.76;36.27;100709.13;5053575;28;1013;-45
2022/08/30 06:59:04;;;;;;;;;;;;;;;28.77;36.29;100709.97;5053394;28;934;-46
2022/08/30 07:01:29;;;;;;;;;;;;;;;28.78;36.03;100717.88;5055742;28;972;-46
2022/08/30 07:03:55;;;;;;;;;;;;;;;28.84;36.59;100716.28;5057620;28;1902;-49
2022/08/30 07:06:20;;;;;;;;;;;;;;;28.79;36.01;100719.59;5053695;28;1012;-51
2022/08/30 07:08:46;;;;;;;;;;;;;;;28.87;36.93;100715.88;5071080;28;974;-45
2022/08/30 07:11:11;;;;;;;;;;;;;;;28.85;36.60;100713.38;5073199;28;1006;-47
2022/08/30 07:13:37;;;;;;;;;;;;;;;28.82;36.23;100719.19;5073504;28;1008;-45
2022/08/30 07:16:11;;;;;;;;;;;;;;;28.87;36.53;100712.34;5063549;28;941;-48
2022/08/30 07:18:55;;;;;;;;;;;;;;;28.82;36.28;100716.47;5054843;28;1884;-45
2022/08/30 07:21:25;;;;;;;;;;;;;;;28.85;36.63;100720.66;5053499;28;1029;-49
2022/08/30 07:23:50;;;;;;;;;;;;;;;28.85;36.11;100713.38;5055157;28;2229;-51
2022/08/30 07:26:17;;;;;;;;;;;;;;;28.89;36.02;100707.56;5055368;28;1006;-47
2022/08/30 07:28:43;;;;;;;;;;;;;;;28.86;36.17;100714.22;5053591;28;964;-45
2022/08/30 07:31:08;;;;;;;;;;;;;;;28.88;36.38;100712.13;5055013;28;895;-44
2022/08/30 07:33:33;;;;;;;;;;;;;;;28.97;36.40;100712.88;5053024;28;1172;-43
2022/08/30 07:35:59;;;;;;;;;;;;;;;28.96;36.14;100725.53;5055210;28;961;-44
2022/08/30 07:38:25;;;;;;;;;;;;;;;28.71;36.57;100676.41;5053946;28;1203;-45
2022/08/30 07:40:50;;;;;;;;;;;;;;;28.64;35.84;100665.53;5052094;28;1017;-44
2022/08/30 07:43:15;;;;;;;;;;;;;;;28.99;35.78;100710.81;5053240;28;1952;-44
2022/08/30 07:45:41;;;;;;;;;;;;;;;29.03;35.98;100711.25;5052393;28;929;-42
2022/08/30 07:48:06;;;;;;;;;;;;;;;29.00;36.52;100708.91;5057168;28;1841;-44
2022/08/30 07:50:31;;;;;;;;;;;;;;;28.99;36.13;100702.69;5052957;28;901;-43
2022/08/30 07:52:57;;;;;;;;;;;;;;;29.04;36.21;100708.34;5059019;28;1234;-44
2022/08/30 07:55:22;;;;;;;;;;;;;;;29.04;36.46;100707.50;5054610;28;1090;-44
2022/08/30 07:57:48;;;;;;;;;;;;;;;29.05;36.73;100701.88;5056058;28;987;-49
2022/08/30 08:00:13;;;;;;;;;;;;;;;29.13;36.67;100700.88;5053589;28;1020;-44
2022/08/30 08:02:40;;;;;;;;;;;;;;;29.15;36.16;100697.97;5054029;28;1953;-42
2022/08/30 08:05:07;;;;;;;;;;;;;;;29.17;36.03;100698.63;5069159;28;1236;-45
2022/08/30 08:07:32;;;;;;;;;;;;;;;29.13;36.20;100691.94;5072894;28;1151;-43
2022/08/30 08:09:57;;;;;;;;;;;;;;;29.04;36.06;100694.81;5070490;28;1173;-44
2022/08/30 08:12:23;;;;;;;;;;;;;;;29.17;36.05;100691.34;5062024;28;1223;-43
2022/08/30 08:14:48;;;;;;;;;;;;;;;29.09;35.90;100689.59;5061465;28;1271;-42
2022/08/30 08:17:15;;;;;;;;;;;;;;;29.14;35.87;100690.91;5063978;28;1835;-43
2022/08/30 08:19:40;;;;;;;;;;;;;;;29.15;35.94;100689.84;5043008;28;1207;-45
2022/08/30 08:22:06;;;;;;;;;;;;;;;29.20;35.97;100688.22;5060210;28;1231;-43
2022/08/30 08:24:31;;;;;;;;;;;;;;;29.26;36.20;100689.28;5062009;28;1906;-42
2022/08/30 08:26:56;;;;;;;;;;;;;;;29.29;36.07;100679.94;5061464;28;1234;-43
2022/08/30 08:29:22;;;;;;;;;;;;;;;29.31;36.31;100680.59;5063039;28;1303;-45
2022/08/30 08:31:47;;;;;;;;;;;;;;;29.30;36.34;100676.19;5061203;28;1203;-44
2022/08/30 08:34:13;;;;;;;;;;;;;;;29.32;35.83;100683.09;5060692;28;1199;-45
2022/08/30 08:36:39;;;;;;;;;;;;;;;29.33;36.16;100676.63;5067784;28;1212;-42
2022/08/30 08:39:04;;;;;;;;;;;;;;;29.16;36.65;100678.00;5069587;28;1044;-46
2022/08/30 08:41:34;;;;;;;;;;;;;;;29.30;36.08;100671.63;5073922;28;1052;-47
2022/08/30 08:43:59;;;;;;;;;;;;;;;29.32;36.44;100668.72;5058378;28;1898;-46
2022/08/30 08:46:48;;;;;;;;;;;;;;;29.38;35.54;100667.09;5060091;28;1104;-45
2022/08/30 08:49:13;;;;;;;;;;;;;;;29.38;36.13;100670.59;5053324;28;2309;-45
2022/08/30 08:54:22;;;;;;;;;;;;;;;29.48;36.17;100666.72;5059386;28;1072;-47
2022/08/30 08:56:48;;;;;;;;;;;;;;;29.50;36.22;100668.16;5055597;28;1227;-45
2022/08/30 08:59:13;;;;;;;;;;;;;;;29.53;36.33;100675.91;5061216;28;1212;-48
2022/08/30 09:01:39;;;;;;;;;;;;;;;29.57;36.21;100671.75;5052788;28;1077;-49
2022/08/30 09:04:06;;;;;;;;;;;;;;;29.58;35.96;100669.84;5061667;28;1902;-47
2022/08/30 09:06:47;;;;;;;;;;;;;;;29.58;36.20;100673.41;5056007;28;1279;-48
2022/08/30 09:09:13;;;;;;;;;;;;;;;29.23;36.11;100669.91;5074761;28;1243;-42
2022/08/30 09:11:38;;;;;;;;;;;;;;;29.26;36.18;100666.81;5069263;28;1278;-44
2022/08/30 09:14:23;;;;;;;;;;;;;;;29.36;35.94;100666.44;5052946;28;1082;-43
2022/08/30 09:16:49;;;;;;;;;;;;;;;29.45;36.11;100663.34;5039636;28;855;-50
2022/08/30 09:19:30;;;;;;;;;;;;;;;29.59;36.33;100666.16;5067731;28;1731;-48
2022/08/30 09:21:59;;;;;;;;;;;;;;;29.61;36.14;100657.84;5063280;28;883;-50
2022/08/30 09:24:25;;;;;;;;;;;;;;;29.53;35.56;100653.41;5065211;28;1913;-48
2022/08/30 09:26:50;;;;;;;;;;;;;;;29.63;35.80;100658.47;5064217;28;1092;-48
2022/08/30 09:29:16;;;;;;;;;;;;;;;29.67;35.73;100655.16;5068078;28;1253;-47
2022/08/30 09:32:00;;;;;;;;;;;;;;;29.74;35.65;100651.63;5072463;28;988;-47
2022/08/30 09:34:25;;;;;;;;;;;;;;;29.77;35.32;100653.91;5067246;28;1020;-46
2022/08/30 09:36:51;;;;;;;;;;;;;;;29.79;35.42;100647.28;5055076;28;1139;-47
2022/08/30 09:39:25;;;;;;;;;;;;;;;29.77;35.02;100656.63;5052496;28;1318;-49
2022/08/30 09:41:50;;;;;;;;;;;;;;;29.74;35.31;100649.75;5047797;28;1172;-46
2022/08/30 09:44:35;;;;;;;;;;;;;;;29.72;34.97;100648.25;5055867;28;1886;-48
2022/08/30 09:47:01;;;;;;;;;;;;;;;29.77;34.85;100645.78;5064399;28;1035;-47
2022/08/30 09:49:28;;;;;;;;;;;;;;;29.85;35.13;100650.19;5059655;28;1864;-49
2022/08/30 09:52:17;;;;;;;;;;;;;;;29.90;35.52;100650.41;5059576;28;1112;-46
2022/08/30 09:54:54;;;;;;;;;;;;;;;29.84;35.74;100646.66;5029192;28;1212;-50
2022/08/30 09:57:27;;;;;;;;;;;;;;;29.88;35.24;100642.47;5055271;28;1381;-48
2022/08/30 09:59:53;;;;;;;;;;;;;;;29.94;35.80;100644.38;5054927;28;1168;-51
2022/08/30 10:02:37;;;;;;;;;;;;;;;29.95;35.75;100645.19;5059470;28;1259;-49
2022/08/30 10:05:14;;;;;;;;;;;;;;;29.94;35.83;100641.69;5059893;28;1168;-48
2022/08/30 10:07:43;;;;;;;;;;;;;;;29.93;35.94;100644.56;5055158;28;1224;-45
2022/08/30 10:10:34;;;;;;;;;;;;;;;29.90;35.79;100643.09;5055716;28;1508;-47
2022/08/30 10:13:21;;;;;;;;;;;;;;;29.90;35.75;100645.81;5026965;28;1487;-43
2022/08/30 10:15:55;;;;;;;;;;;;;;;29.95;35.86;100639.78;5013621;28;1335;-45
2022/08/30 10:18:24;;;;;;;;;;;;;;;29.97;35.79;100629.56;5060111;28;2303;-47
2022/08/30 10:20:55;;;;;;;;;;;;;;;30.01;35.55;100633.53;5047937;28;1219;-47
2022/08/30 10:23:21;;;;;;;;;;;;;;;30.00;35.43;100633.72;5071687;28;1910;-46
2022/08/30 10:25:48;;;;;;;;;;;;;;;30.04;35.63;100637.72;5046162;28;1270;-45
2022/08/30 10:28:26;;;;;;;;;;;;;;;30.01;35.97;100632.72;5054789;28;1093;-48
2022/08/30 10:30:54;;;;;;;;;;;;;;;30.03;35.80;100634.16;5066256;28;1207;-49
2022/08/30 10:33:22;;;;;;;;;;;;;;;29.99;35.82;100632.06;5050174;28;1122;-48
2022/08/30 10:35:49;;;;;;;;;;;;;;;30.06;35.30;100636.47;5057387;28;1119;-46
2022/08/30 10:38:14;;;;;;;;;;;;;;;30.08;36.10;100643.56;5069333;28;1004;-46
2022/08/30 10:43:34;;;;;;;;;;;;;;;29.98;36.32;100636.66;5068291;28;1901;-46
2022/08/30 10:46:00;;;;;;;;;;;;;;;29.41;36.11;100523.88;5071052;28;1084;-45
2022/08/30 10:48:30;;;;;;;;;;;;;;;30.17;36.29;100637.75;5040169;28;2235;-44
2022/08/30 10:50:56;;;;;;;;;;;;;;;30.14;36.32;100640.88;5059700;28;1104;-44
2022/08/30 10:53:28;;;;;;;;;;;;;;;30.09;36.52;100628.97;5052425;28;1064;-47
2022/08/30 10:55:57;;;;;;;;;;;;;;;30.15;36.76;100630.84;5049874;28;1123;-47
2022/08/30 10:58:22;;;;;;;;;;;;;;;30.15;36.35;100623.53;5059738;28;1064;-46
2022/08/30 11:00:50;;;;;;;;;;;;;;;30.22;36.57;100631.72;5058779;28;1088;-46
2022/08/30 11:03:23;;;;;;;;;;;;;;;30.22;36.06;100623.59;5061636;28;1963;-46
2022/08/30 11:06:07;;;;;;;;;;;;;;;30.23;35.76;100624.44;5058215;28;1115;-47
2022/08/30 11:08:51;;;;;;;;;;;;;;;30.19;36.52;100619.38;5058243;28;1204;-48
2022/08/30 11:11:17;;;;;;;;;;;;;;;30.25;36.60;100612.31;5037386;28;1256;-44
2022/08/30 11:13:42;;;;;;;;;;;;;;;30.22;36.48;100617.31;5041900;28;1250;-44
2022/08/30 11:16:14;;;;;;;;;;;;;;;30.18;36.24;100606.84;5050458;28;1282;-43
2022/08/30 11:18:52;;;;;;;;;;;;;;;30.26;36.26;100600.41;5049859;28;1878;-46
2022/08/30 11:21:21;;;;;;;;;;;;;;;30.17;36.36;100601.63;5048866;28;1085;-46
2022/08/30 11:24:07;;;;;;;;;;;;;;;30.23;36.03;100594.59;5037220;28;1902;-47
2022/08/30 11:26:48;;;;;;;;;;;;;;;30.16;35.89;100589.94;5048248;28;1128;-47
2022/08/30 11:29:26;;;;;;;;;;;;;;;30.31;36.26;100597.09;5039907;28;1195;-46
2022/08/30 11:31:52;;;;;;;;;;;;;;;30.30;36.44;100590.81;5038491;28;1029;-45
2022/08/30 11:34:35;;;;;;;;;;;;;;;30.35;36.36;100582.03;5041707;28;1259;-45
2022/08/30 11:37:01;;;;;;;;;;;;;;;30.29;36.51;100578.31;5036757;28;1364;-46
2022/08/30 11:39:45;;;;;;;;;;;;;;;30.28;36.14;100573.91;5037819;28;1103;-46
2022/08/30 11:42:30;;;;;;;;;;;;;;;30.29;36.01;100574.75;5038907;28;1255;-48
2022/08/30 11:45:19;;;;;;;;;;;;;;;30.29;35.92;100575.59;5044737;28;1906;-44
2022/08/30 11:47:46;;;;;;;;;;;;;;;30.29;35.46;100575.59;5010613;28;1862;-46
2022/08/30 11:50:12;;;;;;;;;;;;;;;30.34;36.17;100571.41;5053431;28;1245;-47
2022/08/30 11:52:40;;;;;;;;;;;;;;;30.33;35.68;100569.75;5054510;28;982;-45
2022/08/30 11:55:18;;;;;;;;;;;;;;;30.31;35.84;100559.91;5055961;28;1223;-48
2022/08/30 11:57:52;;;;;;;;;;;;;;;30.33;36.11;100561.59;5053978;28;977;-46
2022/08/30 12:00:17;;;;;;;;;;;;;;;30.36;35.84;100563.91;5056456;28;945;-44
2022/08/30 12:02:45;;;;;;;;;;;;;;;30.39;35.68;100560.75;5048624;28;1963;-45
2022/08/30 12:05:29;;;;;;;;;;;;;;;30.38;36.03;100559.09;5050315;28;1009;-46
2022/08/30 12:07:58;;;;;;;;;;;;;;;30.32;35.72;100560.75;5050273;28;986;-48
2022/08/30 12:10:34;;;;;;;;;;;;;;;30.35;36.35;100560.34;5057204;28;1016;-44
2022/08/30 12:13:00;;;;;;;;;;;;;;;30.36;36.13;100558.47;5062091;28;1068;-46
2022/08/30 12:15:26;;;;;;;;;;;;;;;30.23;36.10;100557.41;5070238;28;1064;-44
2022/08/30 12:20:37;;;;;;;;;;;;;;;30.47;36.29;100563.25;5051252;28;1105;-48
2022/08/30 12:23:15;;;;;;;;;;;;;;;30.45;35.97;100559.09;5066808;28;1906;-46
2022/08/30 12:25:41;;;;;;;;;;;;;;;30.39;36.22;100568.91;5055667;28;1116;-46
2022/08/30 12:28:10;;;;;;;;;;;;;;;30.47;36.21;100560.53;5051942;28;1263;-45
2022/08/30 12:30:38;;;;;;;;;;;;;;;30.45;36.20;100561.81;5074800;28;1040;-45
2022/08/30 12:33:04;;;;;;;;;;;;;;;30.45;36.47;100556.38;5072978;28;1143;-48
2022/08/30 12:35:29;;;;;;;;;;;;;;;30.48;36.37;100556.78;5070333;28;1355;-47
2022/08/30 12:37:55;;;;;;;;;;;;;;;30.43;36.42;100549.25;5072174;28;1118;-42
2022/08/30 12:40:21;;;;;;;;;;;;;;;30.43;36.21;100553.84;5077355;28;977;-46
2022/08/30 12:42:51;;;;;;;;;;;;;;;30.41;35.99;100562.19;5068973;28;1964;-45
2022/08/30 12:45:19;;;;;;;;;;;;;;;30.41;36.72;100551.34;5076076;28;1131;-46
2022/08/30 12:47:52;;;;;;;;;;;;;;;30.35;36.57;100554.91;5054796;28;2497;-43
2022/08/30 12:50:21;;;;;;;;;;;;;;;30.45;36.39;100559.09;5058952;28;1133;-44
2022/08/30 12:52:47;;;;;;;;;;;;;;;30.41;36.56;100555.97;5068707;28;972;-43
2022/08/30 12:55:17;;;;;;;;;;;;;;;30.41;36.46;100545.91;5061743;28;1164;-48
2022/08/30 12:57:45;;;;;;;;;;;;;;;30.39;36.49;100553.47;5058676;28;1436;-42